sensor_id;sensor_type;location;lat;lon;timestamp;P1;durP1;ratioP1;P2;durP2;ratioP2
69434;SDS011;56625;54.322;18.582;2023-07-31T00:01:07;4.30;;;1.10;;
69434;SDS011;56625;54.322;18.582;2023-07-31T00:03:49;3.50;;;0.80;;
69434;SDS011;56625;54.322;18.582;2023-07-31T00:06:30;3.60;;;0.80;;
69434;SDS011;56625;54.322;18.582;2023-07-31T00:09:19;2.80;;;0.70;;
69434;SDS011;56625;54.322;18.582;2023-07-31T00:12:14;3.40;;;1.00;;
69434;SDS011;56625;54.322;18.582;2023-07-31T00:15:09;5.00;;;1.10;;
69434;SDS011;56625;54.322;18.582;2023-07-31T00:18:05;5.10;;;1.10;;
69434;SDS011;56625;54.322;18.582;2023-07-31T00:21:00;4.50;;;1.00;;
69434;SDS011;56625;54.322;18.582;2023-07-31T00:23:55;4.70;;;1.10;;
69434;SDS011;56625;54.322;18.582;2023-07-31T00:26:50;6.10;;;1.10;;
69434;SDS011;56625;54.322;18.582;2023-07-31T00:29:45;5.30;;;1.20;;
69434;SDS011;56625;54.322;18.582;2023-07-31T00:32:40;4.80;;;1.10;;
69434;SDS011;56625;54.322;18.582;2023-07-31T00:35:35;4.70;;;1.20;;
69434;SDS011;56625;54.322;18.582;2023-07-31T00:38:30;3.80;;;1.30;;
69434;SDS011;56625;54.322;18.582;2023-07-31T00:41:25;5.00;;;1.20;;
69434;SDS011;56625;54.322;18.582;2023-07-31T00:44:20;4.30;;;1.30;;
69434;SDS011;56625;54.322;18.582;2023-07-31T00:46:55;3.70;;;1.10;;
69434;SDS011;56625;54.322;18.582;2023-07-31T00:49:44;6.30;;;1.50;;
69434;SDS011;56625;54.322;18.582;2023-07-31T00:52:19;5.30;;;1.30;;
69434;SDS011;56625;54.322;18.582;2023-07-31T00:55:08;4.90;;;1.50;;
69434;SDS011;56625;54.322;18.582;2023-07-31T00:57:44;4.10;;;1.20;;
69434;SDS011;56625;54.322;18.582;2023-07-31T01:00:33;5.70;;;1.40;;
69434;SDS011;56625;54.322;18.582;2023-07-31T01:03:07;6.40;;;1.50;;
69434;SDS011;56625;54.322;18.582;2023-07-31T01:05:58;5.30;;;1.70;;
69434;SDS011;56625;54.322;18.582;2023-07-31T01:08:44;5.80;;;1.50;;
69434;SDS011;56625;54.322;18.582;2023-07-31T01:12:01;6.00;;;1.70;;
69434;SDS011;56625;54.322;18.582;2023-07-31T01:15:04;6.50;;;1.60;;
69434;SDS011;56625;54.322;18.582;2023-07-31T01:17:41;4.70;;;1.50;;
69434;SDS011;56625;54.322;18.582;2023-07-31T01:20:30;7.30;;;1.60;;
69434;SDS011;56625;54.322;18.582;2023-07-31T01:23:21;8.10;;;1.90;;
69434;SDS011;56625;54.322;18.582;2023-07-31T01:26:23;5.70;;;1.50;;
69434;SDS011;56625;54.322;18.582;2023-07-31T01:29:17;5.30;;;1.40;;
69434;SDS011;56625;54.322;18.582;2023-07-31T01:32:13;5.70;;;1.70;;
69434;SDS011;56625;54.322;18.582;2023-07-31T01:34:51;5.20;;;1.70;;
69434;SDS011;56625;54.322;18.582;2023-07-31T01:37:39;7.70;;;2.00;;
69434;SDS011;56625;54.322;18.582;2023-07-31T01:40:13;5.80;;;2.70;;
69434;SDS011;56625;54.322;18.582;2023-07-31T01:43:01;7.90;;;2.40;;
69434;SDS011;56625;54.322;18.582;2023-07-31T01:45:35;9.70;;;2.60;;
69434;SDS011;56625;54.322;18.582;2023-07-31T01:48:16;6.20;;;2.70;;
69434;SDS011;56625;54.322;18.582;2023-07-31T01:51:00;8.20;;;2.10;;
69434;SDS011;56625;54.322;18.582;2023-07-31T01:53:41;6.60;;;2.00;;
69434;SDS011;56625;54.322;18.582;2023-07-31T01:56:22;6.40;;;1.70;;
69434;SDS011;56625;54.322;18.582;2023-07-31T01:59:03;7.90;;;1.90;;
69434;SDS011;56625;54.322;18.582;2023-07-31T02:01:44;6.10;;;1.90;;
69434;SDS011;56625;54.322;18.582;2023-07-31T02:04:28;5.60;;;1.70;;
69434;SDS011;56625;54.322;18.582;2023-07-31T02:07:09;7.60;;;1.70;;
69434;SDS011;56625;54.322;18.582;2023-07-31T02:09:57;6.50;;;1.60;;
69434;SDS011;56625;54.322;18.582;2023-07-31T02:12:52;7.60;;;1.50;;
69434;SDS011;56625;54.322;18.582;2023-07-31T02:15:47;5.60;;;1.50;;
69434;SDS011;56625;54.322;18.582;2023-07-31T02:18:42;5.20;;;1.80;;
69434;SDS011;56625;54.322;18.582;2023-07-31T02:21:37;4.90;;;1.60;;
69434;SDS011;56625;54.322;18.582;2023-07-31T02:24:11;5.80;;;1.40;;
69434;SDS011;56625;54.322;18.582;2023-07-31T02:26:59;4.60;;;1.30;;
69434;SDS011;56625;54.322;18.582;2023-07-31T02:29:33;6.10;;;1.40;;
69434;SDS011;56625;54.322;18.582;2023-07-31T02:32:21;4.50;;;1.10;;
69434;SDS011;56625;54.322;18.582;2023-07-31T02:34:55;4.50;;;1.00;;
69434;SDS011;56625;54.322;18.582;2023-07-31T02:37:43;8.00;;;1.30;;
69434;SDS011;56625;54.322;18.582;2023-07-31T02:40:17;5.70;;;2.00;;
69434;SDS011;56625;54.322;18.582;2023-07-31T02:43:05;4.30;;;1.00;;
69434;SDS011;56625;54.322;18.582;2023-07-31T02:45:39;5.30;;;1.40;;
69434;SDS011;56625;54.322;18.582;2023-07-31T02:48:27;5.20;;;1.40;;
69434;SDS011;56625;54.322;18.582;2023-07-31T02:51:01;4.60;;;1.20;;
69434;SDS011;56625;54.322;18.582;2023-07-31T02:53:56;4.90;;;1.40;;
69434;SDS011;56625;54.322;18.582;2023-07-31T02:56:51;5.00;;;1.20;;
69434;SDS011;56625;54.322;18.582;2023-07-31T02:59:46;4.60;;;1.30;;
69434;SDS011;56625;54.322;18.582;2023-07-31T03:02:41;4.40;;;1.20;;
69434;SDS011;56625;54.322;18.582;2023-07-31T03:05:36;5.80;;;1.40;;
69434;SDS011;56625;54.322;18.582;2023-07-31T03:08:31;7.40;;;1.20;;
69434;SDS011;56625;54.322;18.582;2023-07-31T03:11:26;6.20;;;1.30;;
69434;SDS011;56625;54.322;18.582;2023-07-31T03:14:21;7.10;;;1.40;;
69434;SDS011;56625;54.322;18.582;2023-07-31T03:17:16;4.80;;;1.40;;
69434;SDS011;56625;54.322;18.582;2023-07-31T03:20:11;5.90;;;1.50;;
69434;SDS011;56625;54.322;18.582;2023-07-31T03:22:46;4.30;;;1.20;;
69434;SDS011;56625;54.322;18.582;2023-07-31T03:25:34;5.20;;;1.40;;
69434;SDS011;56625;54.322;18.582;2023-07-31T03:28:08;5.40;;;1.60;;
69434;SDS011;56625;54.322;18.582;2023-07-31T03:30:42;5.40;;;1.20;;
69434;SDS011;56625;54.322;18.582;2023-07-31T03:33:23;4.70;;;1.30;;
69434;SDS011;56625;54.322;18.582;2023-07-31T03:35:57;5.60;;;1.30;;
69434;SDS011;56625;54.322;18.582;2023-07-31T03:38:31;5.20;;;1.30;;
69434;SDS011;56625;54.322;18.582;2023-07-31T03:41:12;5.50;;;1.20;;
69434;SDS011;56625;54.322;18.582;2023-07-31T03:43:51;6.20;;;1.70;;
69434;SDS011;56625;54.322;18.582;2023-07-31T03:46:29;5.00;;;1.30;;
69434;SDS011;56625;54.322;18.582;2023-07-31T03:49:11;6.40;;;1.60;;
69434;SDS011;56625;54.322;18.582;2023-07-31T03:51:53;5.70;;;1.30;;
69434;SDS011;56625;54.322;18.582;2023-07-31T03:54:34;5.70;;;1.30;;
69434;SDS011;56625;54.322;18.582;2023-07-31T03:57:08;4.80;;;1.10;;
69434;SDS011;56625;54.322;18.582;2023-07-31T03:59:42;6.80;;;1.20;;
69434;SDS011;56625;54.322;18.582;2023-07-31T04:02:23;4.60;;;1.50;;
69434;SDS011;56625;54.322;18.582;2023-07-31T04:04:57;5.10;;;1.10;;
69434;SDS011;56625;54.322;18.582;2023-07-31T04:07:31;7.60;;;1.20;;
69434;SDS011;56625;54.322;18.582;2023-07-31T04:10:12;4.50;;;1.10;;
69434;SDS011;56625;54.322;18.582;2023-07-31T04:12:47;5.70;;;1.20;;
69434;SDS011;56625;54.322;18.582;2023-07-31T04:15:21;5.80;;;1.10;;
69434;SDS011;56625;54.322;18.582;2023-07-31T04:18:12;3.90;;;1.10;;
69434;SDS011;56625;54.322;18.582;2023-07-31T04:20:46;6.40;;;1.30;;
69434;SDS011;56625;54.322;18.582;2023-07-31T04:23:34;5.40;;;1.40;;
69434;SDS011;56625;54.322;18.582;2023-07-31T04:26:08;5.20;;;1.00;;
69434;SDS011;56625;54.322;18.582;2023-07-31T04:28:58;4.70;;;1.10;;
69434;SDS011;56625;54.322;18.582;2023-07-31T04:31:33;5.50;;;1.20;;
69434;SDS011;56625;54.322;18.582;2023-07-31T04:34:22;7.60;;;1.20;;
69434;SDS011;56625;54.322;18.582;2023-07-31T04:36:56;7.00;;;1.30;;
69434;SDS011;56625;54.322;18.582;2023-07-31T04:39:44;6.60;;;1.60;;
69434;SDS011;56625;54.322;18.582;2023-07-31T04:42:18;6.90;;;1.50;;
69434;SDS011;56625;54.322;18.582;2023-07-31T04:45:08;6.50;;;1.10;;
69434;SDS011;56625;54.322;18.582;2023-07-31T04:47:50;7.50;;;1.30;;
69434;SDS011;56625;54.322;18.582;2023-07-31T04:50:31;3.70;;;1.10;;
69434;SDS011;56625;54.322;18.582;2023-07-31T04:53:07;5.60;;;1.30;;
69434;SDS011;56625;54.322;18.582;2023-07-31T04:55:43;7.80;;;1.50;;
69434;SDS011;56625;54.322;18.582;2023-07-31T04:58:24;6.40;;;1.10;;
69434;SDS011;56625;54.322;18.582;2023-07-31T05:00:58;4.50;;;1.10;;
69434;SDS011;56625;54.322;18.582;2023-07-31T05:03:33;5.20;;;1.10;;
69434;SDS011;56625;54.322;18.582;2023-07-31T05:06:14;6.90;;;1.60;;
69434;SDS011;56625;54.322;18.582;2023-07-31T05:08:49;6.60;;;1.20;;
69434;SDS011;56625;54.322;18.582;2023-07-31T05:11:37;7.00;;;1.00;;
69434;SDS011;56625;54.322;18.582;2023-07-31T05:14:11;9.40;;;1.10;;
69434;SDS011;56625;54.322;18.582;2023-07-31T05:16:59;4.30;;;1.10;;
69434;SDS011;56625;54.322;18.582;2023-07-31T05:19:33;4.40;;;0.70;;
69434;SDS011;56625;54.322;18.582;2023-07-31T05:22:21;6.50;;;1.10;;
69434;SDS011;56625;54.322;18.582;2023-07-31T05:24:55;7.80;;;1.00;;
69434;SDS011;56625;54.322;18.582;2023-07-31T05:27:43;7.30;;;1.40;;
69434;SDS011;56625;54.322;18.582;2023-07-31T05:30:17;7.10;;;1.00;;
69434;SDS011;56625;54.322;18.582;2023-07-31T05:33:05;4.50;;;0.60;;
69434;SDS011;56625;54.322;18.582;2023-07-31T05:35:39;6.20;;;1.50;;
69434;SDS011;56625;54.322;18.582;2023-07-31T05:38:27;5.60;;;0.90;;
69434;SDS011;56625;54.322;18.582;2023-07-31T05:41:01;5.60;;;1.10;;
69434;SDS011;56625;54.322;18.582;2023-07-31T05:43:49;6.40;;;1.10;;
69434;SDS011;56625;54.322;18.582;2023-07-31T05:46:23;3.80;;;1.00;;
69434;SDS011;56625;54.322;18.582;2023-07-31T05:49:12;7.80;;;1.80;;
69434;SDS011;56625;54.322;18.582;2023-07-31T05:51:46;3.20;;;0.70;;
69434;SDS011;56625;54.322;18.582;2023-07-31T05:54:34;6.60;;;1.10;;
69434;SDS011;56625;54.322;18.582;2023-07-31T05:57:08;6.50;;;1.30;;
69434;SDS011;56625;54.322;18.582;2023-07-31T05:59:56;7.20;;;1.30;;
69434;SDS011;56625;54.322;18.582;2023-07-31T06:02:32;5.70;;;1.10;;
69434;SDS011;56625;54.322;18.582;2023-07-31T06:05:20;3.80;;;1.00;;
69434;SDS011;56625;54.322;18.582;2023-07-31T06:07:54;6.60;;;1.00;;
69434;SDS011;56625;54.322;18.582;2023-07-31T06:10:42;5.60;;;1.00;;
69434;SDS011;56625;54.322;18.582;2023-07-31T06:13:37;3.50;;;1.00;;
69434;SDS011;56625;54.322;18.582;2023-07-31T06:16:32;7.10;;;1.20;;
69434;SDS011;56625;54.322;18.582;2023-07-31T06:19:07;6.90;;;1.40;;
69434;SDS011;56625;54.322;18.582;2023-07-31T06:21:55;5.30;;;1.00;;
69434;SDS011;56625;54.322;18.582;2023-07-31T06:24:29;6.30;;;1.20;;
69434;SDS011;56625;54.322;18.582;2023-07-31T06:27:17;6.70;;;1.10;;
69434;SDS011;56625;54.322;18.582;2023-07-31T06:29:51;9.30;;;1.40;;
69434;SDS011;56625;54.322;18.582;2023-07-31T06:32:39;5.30;;;0.90;;
69434;SDS011;56625;54.322;18.582;2023-07-31T06:35:14;6.40;;;1.00;;
69434;SDS011;56625;54.322;18.582;2023-07-31T06:38:02;5.50;;;1.10;;
69434;SDS011;56625;54.322;18.582;2023-07-31T06:40:36;6.20;;;1.20;;
69434;SDS011;56625;54.322;18.582;2023-07-31T06:43:10;5.20;;;1.00;;
69434;SDS011;56625;54.322;18.582;2023-07-31T06:46:06;11.90;;;1.80;;
69434;SDS011;56625;54.322;18.582;2023-07-31T06:48:41;11.30;;;1.50;;
69434;SDS011;56625;54.322;18.582;2023-07-31T06:51:29;9.90;;;1.40;;
69434;SDS011;56625;54.322;18.582;2023-07-31T06:54:05;17.50;;;2.10;;
69434;SDS011;56625;54.322;18.582;2023-07-31T06:56:53;6.10;;;1.10;;
69434;SDS011;56625;54.322;18.582;2023-07-31T06:59:27;10.80;;;1.10;;
69434;SDS011;56625;54.322;18.582;2023-07-31T07:02:15;5.40;;;0.80;;
69434;SDS011;56625;54.322;18.582;2023-07-31T07:04:49;4.70;;;0.90;;
69434;SDS011;56625;54.322;18.582;2023-07-31T07:07:37;5.50;;;0.90;;
69434;SDS011;56625;54.322;18.582;2023-07-31T07:10:11;6.40;;;0.80;;
69434;SDS011;56625;54.322;18.582;2023-07-31T07:13:06;4.50;;;0.70;;
69434;SDS011;56625;54.322;18.582;2023-07-31T07:16:01;8.50;;;1.50;;
69434;SDS011;56625;54.322;18.582;2023-07-31T07:18:56;8.30;;;1.40;;
69434;SDS011;56625;54.322;18.582;2023-07-31T07:21:51;5.60;;;0.80;;
69434;SDS011;56625;54.322;18.582;2023-07-31T07:24:48;5.50;;;1.00;;
69434;SDS011;56625;54.322;18.582;2023-07-31T07:27:43;7.60;;;0.70;;
69434;SDS011;56625;54.322;18.582;2023-07-31T07:30:38;5.70;;;0.70;;
69434;SDS011;56625;54.322;18.582;2023-07-31T07:33:33;5.10;;;1.10;;
69434;SDS011;56625;54.322;18.582;2023-07-31T07:36:28;4.10;;;0.70;;
69434;SDS011;56625;54.322;18.582;2023-07-31T07:39:23;6.00;;;0.90;;
69434;SDS011;56625;54.322;18.582;2023-07-31T07:42:18;4.50;;;0.80;;
69434;SDS011;56625;54.322;18.582;2023-07-31T07:45:13;6.00;;;0.80;;
69434;SDS011;56625;54.322;18.582;2023-07-31T07:48:08;4.50;;;0.50;;
69434;SDS011;56625;54.322;18.582;2023-07-31T07:51:04;5.80;;;0.70;;
69434;SDS011;56625;54.322;18.582;2023-07-31T07:53:59;6.10;;;0.70;;
69434;SDS011;56625;54.322;18.582;2023-07-31T07:56:54;7.80;;;1.40;;
69434;SDS011;56625;54.322;18.582;2023-07-31T07:59:49;9.50;;;1.20;;
69434;SDS011;56625;54.322;18.582;2023-07-31T08:02:44;5.40;;;0.70;;
69434;SDS011;56625;54.322;18.582;2023-07-31T08:05:39;5.00;;;0.80;;
69434;SDS011;56625;54.322;18.582;2023-07-31T08:08:34;5.10;;;0.80;;
69434;SDS011;56625;54.322;18.582;2023-07-31T08:11:09;5.70;;;0.60;;
69434;SDS011;56625;54.322;18.582;2023-07-31T08:13:57;3.80;;;0.70;;
69434;SDS011;56625;54.322;18.582;2023-07-31T08:16:32;5.40;;;0.90;;
69434;SDS011;56625;54.322;18.582;2023-07-31T08:19:19;3.40;;;0.60;;
69434;SDS011;56625;54.322;18.582;2023-07-31T08:21:54;6.10;;;0.80;;
69434;SDS011;56625;54.322;18.582;2023-07-31T08:24:42;5.50;;;0.80;;
69434;SDS011;56625;54.322;18.582;2023-07-31T08:27:16;6.60;;;0.80;;
69434;SDS011;56625;54.322;18.582;2023-07-31T08:30:04;3.90;;;0.70;;
69434;SDS011;56625;54.322;18.582;2023-07-31T08:32:39;4.50;;;0.70;;
69434;SDS011;56625;54.322;18.582;2023-07-31T08:35:27;5.40;;;0.70;;
69434;SDS011;56625;54.322;18.582;2023-07-31T08:38:04;3.30;;;0.50;;
69434;SDS011;56625;54.322;18.582;2023-07-31T08:40:38;10.80;;;1.30;;
69434;SDS011;56625;54.322;18.582;2023-07-31T08:43:20;4.80;;;0.60;;
69434;SDS011;56625;54.322;18.582;2023-07-31T08:46:06;1.80;;;0.30;;
69434;SDS011;56625;54.322;18.582;2023-07-31T08:48:47;4.70;;;0.50;;
69434;SDS011;56625;54.322;18.582;2023-07-31T08:51:29;5.30;;;0.70;;
69434;SDS011;56625;54.322;18.582;2023-07-31T08:54:10;3.60;;;0.60;;
69434;SDS011;56625;54.322;18.582;2023-07-31T08:56:52;4.40;;;0.70;;
69434;SDS011;56625;54.322;18.582;2023-07-31T08:59:34;5.00;;;0.60;;
69434;SDS011;56625;54.322;18.582;2023-07-31T09:02:16;3.80;;;0.70;;
69434;SDS011;56625;54.322;18.582;2023-07-31T09:05:00;2.40;;;0.40;;
69434;SDS011;56625;54.322;18.582;2023-07-31T09:07:44;3.70;;;0.60;;
69434;SDS011;56625;54.322;18.582;2023-07-31T09:10:27;4.90;;;1.00;;
69434;SDS011;56625;54.322;18.582;2023-07-31T09:13:09;3.50;;;0.50;;
69434;SDS011;56625;54.322;18.582;2023-07-31T09:15:58;2.80;;;0.60;;
69434;SDS011;56625;54.322;18.582;2023-07-31T09:18:52;3.20;;;0.60;;
69434;SDS011;56625;54.322;18.582;2023-07-31T09:21:48;4.10;;;0.70;;
69434;SDS011;56625;54.322;18.582;2023-07-31T09:24:31;2.70;;;0.50;;
69434;SDS011;56625;54.322;18.582;2023-07-31T09:27:28;5.00;;;0.60;;
69434;SDS011;56625;54.322;18.582;2023-07-31T09:30:49;4.40;;;0.70;;
69434;SDS011;56625;54.322;18.582;2023-07-31T09:33:55;5.50;;;0.80;;
69434;SDS011;56625;54.322;18.582;2023-07-31T09:36:42;7.10;;;0.90;;
69434;SDS011;56625;54.322;18.582;2023-07-31T09:39:27;3.70;;;0.70;;
69434;SDS011;56625;54.322;18.582;2023-07-31T09:42:10;3.00;;;0.60;;
69434;SDS011;56625;54.322;18.582;2023-07-31T09:44:51;5.40;;;0.70;;
69434;SDS011;56625;54.322;18.582;2023-07-31T09:47:32;3.20;;;0.60;;
69434;SDS011;56625;54.322;18.582;2023-07-31T09:50:14;6.00;;;1.00;;
69434;SDS011;56625;54.322;18.582;2023-07-31T09:52:56;8.90;;;1.20;;
69434;SDS011;56625;54.322;18.582;2023-07-31T09:55:38;3.50;;;0.60;;
69434;SDS011;56625;54.322;18.582;2023-07-31T09:58:21;1.70;;;0.30;;
69434;SDS011;56625;54.322;18.582;2023-07-31T10:01:02;2.70;;;0.50;;
69434;SDS011;56625;54.322;18.582;2023-07-31T10:03:45;2.60;;;0.30;;
69434;SDS011;56625;54.322;18.582;2023-07-31T10:06:34;2.80;;;0.30;;
69434;SDS011;56625;54.322;18.582;2023-07-31T10:09:13;2.10;;;0.30;;
69434;SDS011;56625;54.322;18.582;2023-07-31T10:12:14;3.10;;;0.40;;
69434;SDS011;56625;54.322;18.582;2023-07-31T10:15:14;4.30;;;0.60;;
69434;SDS011;56625;54.322;18.582;2023-07-31T10:18:10;2.00;;;0.50;;
69434;SDS011;56625;54.322;18.582;2023-07-31T10:21:07;5.20;;;0.60;;
69434;SDS011;56625;54.322;18.582;2023-07-31T10:24:05;3.20;;;0.60;;
69434;SDS011;56625;54.322;18.582;2023-07-31T10:27:01;3.90;;;0.50;;
69434;SDS011;56625;54.322;18.582;2023-07-31T10:29:57;3.70;;;0.70;;
69434;SDS011;56625;54.322;18.582;2023-07-31T10:32:53;3.50;;;0.70;;
69434;SDS011;56625;54.322;18.582;2023-07-31T10:35:28;4.50;;;1.00;;
69434;SDS011;56625;54.322;18.582;2023-07-31T10:38:16;2.10;;;0.60;;
69434;SDS011;56625;54.322;18.582;2023-07-31T10:40:50;4.10;;;0.70;;
69434;SDS011;56625;54.322;18.582;2023-07-31T10:43:38;5.80;;;0.90;;
69434;SDS011;56625;54.322;18.582;2023-07-31T10:46:13;2.90;;;0.70;;
69434;SDS011;56625;54.322;18.582;2023-07-31T10:49:02;3.00;;;0.70;;
69434;SDS011;56625;54.322;18.582;2023-07-31T10:51:40;4.90;;;0.60;;
69434;SDS011;56625;54.322;18.582;2023-07-31T10:54:28;4.50;;;0.90;;
69434;SDS011;56625;54.322;18.582;2023-07-31T10:57:19;3.60;;;0.70;;
69434;SDS011;56625;54.322;18.582;2023-07-31T11:00:37;2.60;;;0.60;;
69434;SDS011;56625;54.322;18.582;2023-07-31T11:03:17;3.10;;;0.80;;
69434;SDS011;56625;54.322;18.582;2023-07-31T11:06:06;3.60;;;0.60;;
69434;SDS011;56625;54.322;18.582;2023-07-31T11:08:51;5.70;;;0.80;;
69434;SDS011;56625;54.322;18.582;2023-07-31T11:11:33;4.60;;;0.70;;
69434;SDS011;56625;54.322;18.582;2023-07-31T11:14:14;4.00;;;0.90;;
69434;SDS011;56625;54.322;18.582;2023-07-31T11:16:55;2.60;;;0.50;;
69434;SDS011;56625;54.322;18.582;2023-07-31T11:19:37;3.00;;;0.60;;
69434;SDS011;56625;54.322;18.582;2023-07-31T11:22:18;4.70;;;0.70;;
69434;SDS011;56625;54.322;18.582;2023-07-31T11:24:59;3.40;;;0.60;;
69434;SDS011;56625;54.322;18.582;2023-07-31T11:27:40;2.50;;;0.50;;
69434;SDS011;56625;54.322;18.582;2023-07-31T11:30:22;2.60;;;0.70;;
69434;SDS011;56625;54.322;18.582;2023-07-31T11:33:05;4.10;;;0.90;;
69434;SDS011;56625;54.322;18.582;2023-07-31T11:35:48;4.20;;;0.80;;
69434;SDS011;56625;54.322;18.582;2023-07-31T11:38:30;6.10;;;1.20;;
69434;SDS011;56625;54.322;18.582;2023-07-31T11:41:14;4.00;;;0.70;;
69434;SDS011;56625;54.322;18.582;2023-07-31T11:43:59;7.20;;;1.00;;
69434;SDS011;56625;54.322;18.582;2023-07-31T11:47:07;5.90;;;0.90;;
69434;SDS011;56625;54.322;18.582;2023-07-31T11:50:10;3.60;;;1.00;;
69434;SDS011;56625;54.322;18.582;2023-07-31T11:53:07;4.20;;;0.80;;
69434;SDS011;56625;54.322;18.582;2023-07-31T11:56:04;5.40;;;1.00;;
69434;SDS011;56625;54.322;18.582;2023-07-31T11:58:59;4.30;;;0.80;;
69434;SDS011;56625;54.322;18.582;2023-07-31T12:01:37;3.70;;;0.50;;
69434;SDS011;56625;54.322;18.582;2023-07-31T12:04:24;2.80;;;0.80;;
69434;SDS011;56625;54.322;18.582;2023-07-31T12:07:00;4.20;;;0.80;;
69434;SDS011;56625;54.322;18.582;2023-07-31T12:09:54;3.80;;;0.70;;
69434;SDS011;56625;54.322;18.582;2023-07-31T12:13:02;3.70;;;0.70;;
69434;SDS011;56625;54.322;18.582;2023-07-31T12:16:03;2.90;;;0.70;;
69434;SDS011;56625;54.322;18.582;2023-07-31T12:18:58;4.70;;;1.10;;
69434;SDS011;56625;54.322;18.582;2023-07-31T12:21:32;4.20;;;0.60;;
69434;SDS011;56625;54.322;18.582;2023-07-31T12:24:20;5.20;;;0.80;;
69434;SDS011;56625;54.322;18.582;2023-07-31T12:26:54;4.30;;;1.00;;
69434;SDS011;56625;54.322;18.582;2023-07-31T12:29:42;3.20;;;0.90;;
69434;SDS011;56625;54.322;18.582;2023-07-31T12:32:30;5.10;;;0.90;;
69434;SDS011;56625;54.322;18.582;2023-07-31T12:35:10;6.20;;;1.40;;
69434;SDS011;56625;54.322;18.582;2023-07-31T12:37:51;3.90;;;0.90;;
69434;SDS011;56625;54.322;18.582;2023-07-31T12:40:35;3.40;;;0.70;;
69434;SDS011;56625;54.322;18.582;2023-07-31T12:43:18;7.20;;;1.00;;
69434;SDS011;56625;54.322;18.582;2023-07-31T12:46:00;5.60;;;1.00;;
69434;SDS011;56625;54.322;18.582;2023-07-31T12:48:40;7.00;;;1.00;;
69434;SDS011;56625;54.322;18.582;2023-07-31T12:51:21;6.70;;;1.30;;
69434;SDS011;56625;54.322;18.582;2023-07-31T14:59:37;1.60;;;0.40;;
69434;SDS011;56625;54.322;18.582;2023-07-31T15:02:07;2.90;;;0.50;;
69434;SDS011;56625;54.322;18.582;2023-07-31T15:04:37;3.40;;;0.60;;
69434;SDS011;56625;54.322;18.582;2023-07-31T15:07:05;3.30;;;1.00;;
69434;SDS011;56625;54.322;18.582;2023-07-31T15:09:33;2.90;;;0.50;;
69434;SDS011;56625;54.322;18.582;2023-07-31T15:12:01;2.90;;;0.60;;
69434;SDS011;56625;54.322;18.582;2023-07-31T15:14:30;2.10;;;0.50;;
69434;SDS011;56625;54.322;18.582;2023-07-31T15:16:59;3.50;;;0.70;;
69434;SDS011;56625;54.322;18.582;2023-07-31T15:19:27;3.40;;;0.70;;
69434;SDS011;56625;54.322;18.582;2023-07-31T15:32:25;3.20;;;0.60;;
69434;SDS011;56625;54.322;18.582;2023-07-31T15:34:54;4.00;;;0.80;;
69434;SDS011;56625;54.322;18.582;2023-07-31T15:37:22;3.10;;;0.70;;
69434;SDS011;56625;54.322;18.582;2023-07-31T15:39:50;2.70;;;0.60;;
69434;SDS011;56625;54.322;18.582;2023-07-31T15:42:18;4.10;;;0.70;;
69434;SDS011;56625;54.322;18.582;2023-07-31T15:44:46;3.40;;;0.80;;
69434;SDS011;56625;54.322;18.582;2023-07-31T15:47:14;2.80;;;0.80;;
69434;SDS011;56625;54.322;18.582;2023-07-31T15:49:42;2.70;;;0.70;;
69434;SDS011;56625;54.322;18.582;2023-07-31T15:52:10;2.90;;;0.80;;
69434;SDS011;56625;54.322;18.582;2023-07-31T15:54:38;2.60;;;0.80;;
69434;SDS011;56625;54.322;18.582;2023-07-31T15:57:06;2.80;;;0.70;;
69434;SDS011;56625;54.322;18.582;2023-07-31T15:59:34;3.10;;;0.80;;
69434;SDS011;56625;54.322;18.582;2023-07-31T16:02:02;3.90;;;0.90;;
69434;SDS011;56625;54.322;18.582;2023-07-31T16:04:30;2.90;;;0.80;;
69434;SDS011;56625;54.322;18.582;2023-07-31T16:06:58;4.70;;;1.00;;
69434;SDS011;56625;54.322;18.582;2023-07-31T16:09:26;2.90;;;0.90;;
69434;SDS011;56625;54.322;18.582;2023-07-31T16:11:55;2.60;;;0.90;;
69434;SDS011;56625;54.322;18.582;2023-07-31T16:14:23;3.10;;;0.90;;
69434;SDS011;56625;54.322;18.582;2023-07-31T16:16:57;3.70;;;0.80;;
69434;SDS011;56625;54.322;18.582;2023-07-31T16:19:28;6.80;;;1.10;;
69434;SDS011;56625;54.322;18.582;2023-07-31T16:21:56;3.10;;;1.00;;
69434;SDS011;56625;54.322;18.582;2023-07-31T16:24:28;3.60;;;1.20;;
69434;SDS011;56625;54.322;18.582;2023-07-31T16:26:56;4.00;;;1.20;;
69434;SDS011;56625;54.322;18.582;2023-07-31T16:29:26;3.40;;;1.10;;
69434;SDS011;56625;54.322;18.582;2023-07-31T16:31:54;3.40;;;1.20;;
69434;SDS011;56625;54.322;18.582;2023-07-31T16:34:25;5.20;;;1.80;;
69434;SDS011;56625;54.322;18.582;2023-07-31T16:36:54;4.70;;;1.50;;
69434;SDS011;56625;54.322;18.582;2023-07-31T16:39:24;4.90;;;1.40;;
69434;SDS011;56625;54.322;18.582;2023-07-31T16:41:52;4.30;;;1.60;;
69434;SDS011;56625;54.322;18.582;2023-07-31T16:44:20;4.30;;;1.30;;
69434;SDS011;56625;54.322;18.582;2023-07-31T16:46:48;5.20;;;1.70;;
69434;SDS011;56625;54.322;18.582;2023-07-31T16:49:16;4.70;;;1.40;;
69434;SDS011;56625;54.322;18.582;2023-07-31T16:51:44;4.50;;;1.30;;
69434;SDS011;56625;54.322;18.582;2023-07-31T16:54:12;3.60;;;1.40;;
69434;SDS011;56625;54.322;18.582;2023-07-31T16:56:40;4.50;;;1.40;;
69434;SDS011;56625;54.322;18.582;2023-07-31T16:59:27;5.30;;;1.60;;
69434;SDS011;56625;54.322;18.582;2023-07-31T17:01:55;4.60;;;1.60;;
69434;SDS011;56625;54.322;18.582;2023-07-31T17:04:27;4.10;;;1.70;;
69434;SDS011;56625;54.322;18.582;2023-07-31T17:06:58;4.20;;;1.70;;
69434;SDS011;56625;54.322;18.582;2023-07-31T17:09:26;4.90;;;1.50;;
69434;SDS011;56625;54.322;18.582;2023-07-31T17:11:54;3.10;;;1.00;;
69434;SDS011;56625;54.322;18.582;2023-07-31T17:14:28;4.40;;;1.50;;
69434;SDS011;56625;54.322;18.582;2023-07-31T17:16:56;2.20;;;0.80;;
69434;SDS011;56625;54.322;18.582;2023-07-31T17:19:24;4.70;;;1.40;;
69434;SDS011;56625;54.322;18.582;2023-07-31T17:21:52;4.40;;;1.30;;
69434;SDS011;56625;54.322;18.582;2023-07-31T17:24:20;4.30;;;1.30;;
69434;SDS011;56625;54.322;18.582;2023-07-31T17:26:48;3.30;;;1.10;;
69434;SDS011;56625;54.322;18.582;2023-07-31T17:29:16;3.60;;;1.20;;
69434;SDS011;56625;54.322;18.582;2023-07-31T17:31:44;3.40;;;1.20;;
69434;SDS011;56625;54.322;18.582;2023-07-31T17:34:12;4.30;;;1.50;;
69434;SDS011;56625;54.322;18.582;2023-07-31T17:36:40;4.20;;;1.40;;
69434;SDS011;56625;54.322;18.582;2023-07-31T17:39:09;4.60;;;1.60;;
69434;SDS011;56625;54.322;18.582;2023-07-31T17:41:37;4.90;;;1.50;;
69434;SDS011;56625;54.322;18.582;2023-07-31T17:44:05;5.20;;;1.60;;
69434;SDS011;56625;54.322;18.582;2023-07-31T17:46:33;5.30;;;1.90;;
69434;SDS011;56625;54.322;18.582;2023-07-31T17:49:01;4.80;;;1.40;;
69434;SDS011;56625;54.322;18.582;2023-07-31T17:51:32;4.10;;;1.40;;
69434;SDS011;56625;54.322;18.582;2023-07-31T17:54:01;4.80;;;1.60;;
69434;SDS011;56625;54.322;18.582;2023-07-31T17:56:29;5.60;;;1.40;;
69434;SDS011;56625;54.322;18.582;2023-07-31T17:58:59;4.00;;;1.40;;
69434;SDS011;56625;54.322;18.582;2023-07-31T18:01:27;4.40;;;1.40;;
69434;SDS011;56625;54.322;18.582;2023-07-31T18:03:55;4.60;;;1.70;;
69434;SDS011;56625;54.322;18.582;2023-07-31T18:06:23;5.40;;;1.70;;
69434;SDS011;56625;54.322;18.582;2023-07-31T18:08:51;7.50;;;1.60;;
69434;SDS011;56625;54.322;18.582;2023-07-31T18:11:19;4.20;;;1.40;;
69434;SDS011;56625;54.322;18.582;2023-07-31T18:13:48;4.40;;;1.50;;
69434;SDS011;56625;54.322;18.582;2023-07-31T18:16:16;5.90;;;1.80;;